Time;durP1;ratioP1;P1;durP2;ratioP2;P2;SDS_P1;SDS_P2;PMS_P1;PMS_P2;Temp;Humidity;BMP_temperature;BMP_pressure;BME280_temperature;BME280_humidity;BME280_pressure;Samples;Min_cycle;Max_cycle;Signal;HPM_P1;HPM_P2
2023/05/15 00:00:59;;;;;;;30.17;16.33;;;11.10;99.90;;;;;;5221407;28;20052;-74
2023/05/15 00:03:35;;;;;;;18.63;11.77;;;11.10;99.90;;;;;;5222927;28;20256;-73
2023/05/15 00:06:07;;;;;;;26.83;17.52;;;11.10;99.90;;;;;;5229767;28;20052;-71
2023/05/15 00:08:41;;;;;;;5.35;3.05;;;11.10;99.90;;;;;;5224110;28;20167;-72
2023/05/15 00:11:19;;;;;;;5.55;3.80;;;11.10;99.90;;;;;;5227848;28;20043;-72
2023/05/15 00:13:53;;;;;;;16.52;11.50;;;11.20;99.90;;;;;;5239276;28;20032;-70
2023/05/15 00:16:24;;;;;;;4.63;4.07;;;11.20;99.90;;;;;;5241188;28;20042;-71
2023/05/15 00:18:56;;;;;;;2.47;2.28;;;11.20;99.90;;;;;;5240932;28;20032;-70
2023/05/15 00:21:27;;;;;;;8.32;6.32;;;11.10;99.90;;;;;;5226604;28;20024;-71
2023/05/15 00:24:02;;;;;;;18.05;9.55;;;11.10;99.90;;;;;;5226479;28;20043;-72
2023/05/15 00:26:36;;;;;;;4.38;3.22;;;11.10;99.90;;;;;;5226283;28;20041;-72
2023/05/15 00:29:07;;;;;;;3.58;2.17;;;11.10;99.90;;;;;;5223129;28;20036;-71
2023/05/15 00:31:38;;;;;;;22.73;14.30;;;11.10;99.90;;;;;;5206638;28;20036;-70
2023/05/15 00:34:10;;;;;;;7.82;5.65;;;11.10;99.90;;;;;;5225443;28;20044;-72
2023/05/15 00:36:41;;;;;;;8.07;5.40;;;11.00;99.90;;;;;;5254098;28;20036;-72
2023/05/15 00:39:12;;;;;;;92.18;51.83;;;11.00;99.90;;;;;;5225732;28;20042;-72
2023/05/15 00:41:45;;;;;;;79.50;46.67;;;11.00;99.90;;;;;;5244121;28;20047;-71
2023/05/15 00:44:18;;;;;;;6.43;3.95;;;11.00;99.90;;;;;;5242984;28;20036;-69
2023/05/15 00:46:55;;;;;;;4.90;3.43;;;11.00;99.90;;;;;;5202563;28;20233;-73
2023/05/15 00:49:28;;;;;;;6.82;4.10;;;11.00;99.90;;;;;;5214240;28;20269;-73
2023/05/15 00:52:02;;;;;;;12.07;6.95;;;11.00;99.90;;;;;;5211494;28;20664;-71
2023/05/15 00:54:35;;;;;;;24.02;14.38;;;10.90;99.90;;;;;;5221827;28;20024;-73
2023/05/15 00:57:12;;;;;;;17.83;10.50;;;10.90;99.90;;;;;;5208472;28;20574;-70
2023/05/15 00:59:51;;;;;;;8.50;5.35;;;10.90;99.90;;;;;;5225144;28;20040;-74
2023/05/15 01:02:22;;;;;;;70.55;35.65;;;10.90;99.90;;;;;;5253834;22;20049;-69
2023/05/15 01:04:54;;;;;;;39.78;24.83;;;10.90;99.90;;;;;;5200255;28;20056;-72
2023/05/15 01:07:29;;;;;;;10.90;6.90;;;11.00;99.90;;;;;;5203071;28;20142;-70
2023/05/15 01:10:03;;;;;;;26.90;12.90;;;11.00;99.90;;;;;;5200705;28;20045;-71
2023/05/15 01:12:36;;;;;;;5.53;3.72;;;11.00;99.90;;;;;;5198576;28;20039;-74
2023/05/15 01:15:10;;;;;;;8.65;5.95;;;10.90;99.90;;;;;;5200795;28;20028;-74
2023/05/15 01:17:44;;;;;;;;;;;11.00;99.90;;;;;;5221539;28;20222;-69
2023/05/15 01:20:17;;;;;;;11.65;7.90;;;10.90;99.90;;;;;;5221719;28;19913;-74
2023/05/15 01:23:08;;;;;;;38.05;25.67;;;11.00;99.90;;;;;;5204271;28;20080;-72
2023/05/15 01:26:02;;;;;;;7.43;4.03;;;11.00;99.90;;;;;;5200718;28;20037;-71
2023/05/15 01:28:39;;;;;;;3.28;2.58;;;11.10;99.90;;;;;;5217705;28;20389;-71
2023/05/15 01:31:18;;;;;;;6.07;4.78;;;11.00;99.90;;;;;;5199942;28;20031;-70
2023/05/15 01:33:58;;;;;;;3.50;2.85;;;11.10;99.90;;;;;;5203895;28;20037;-71
2023/05/15 01:36:41;;;;;;;4.05;3.08;;;11.10;99.90;;;;;;5192560;28;20211;-72
2023/05/15 01:39:17;;;;;;;10.50;7.75;;;11.10;99.90;;;;;;5225162;28;20052;-72
2023/05/15 01:42:12;;;;;;;6.40;4.28;;;11.10;99.90;;;;;;5185726;28;20036;-72
2023/05/15 01:44:54;;;;;;;4.47;3.40;;;11.10;99.90;;;;;;5171664;28;20107;-71
2023/05/15 01:47:38;;;;;;;3.60;2.90;;;11.20;99.90;;;;;;5193991;28;20043;-70
2023/05/15 01:50:23;;;;;;;18.08;10.85;;;11.30;99.90;;;;;;5204008;28;20071;-71
2023/05/15 01:52:57;;;;;;;17.83;13.68;;;11.30;99.90;;;;;;5218646;28;20044;-70
2023/05/15 01:55:32;;;;;;;87.55;52.50;;;11.40;99.90;;;;;;5184221;28;20394;-71
2023/05/15 01:58:04;;;;;;;19.98;11.02;;;11.30;99.90;;;;;;5201174;28;20296;-71
2023/05/15 02:00:39;;;;;;;11.40;6.88;;;11.40;99.90;;;;;;5216530;28;20501;-71
2023/05/15 02:03:14;;;;;;;22.73;14.00;;;11.40;99.90;;;;;;5187124;28;20205;-70
2023/05/15 02:05:47;;;;;;;42.22;24.33;;;11.40;99.90;;;;;;5175865;28;20056;-69
2023/05/15 02:08:21;;;;;;;25.33;17.13;;;11.50;99.90;;;;;;5192929;28;20071;-72
2023/05/15 02:11:00;;;;;;;43.90;28.05;;;11.50;99.90;;;;;;5218712;28;20017;-71
2023/05/15 02:13:33;;;;;;;8.25;5.32;;;11.50;99.90;;;;;;5198550;28;20341;-72
2023/05/15 02:16:07;;;;;;;11.75;7.40;;;11.50;99.90;;;;;;5183632;28;20037;-71
2023/05/15 02:18:40;;;;;;;14.85;10.25;;;11.50;99.90;;;;;;5201517;28;20041;-72
2023/05/15 02:21:12;;;;;;;27.52;17.05;;;11.50;99.90;;;;;;5192835;28;20040;-71
2023/05/15 02:23:43;;;;;;;16.73;11.18;;;11.60;99.90;;;;;;5219489;28;20494;-71
2023/05/15 02:26:45;;;;;;;3.42;2.70;;;11.60;99.90;;;;;;5202556;28;20025;-71
2023/05/15 02:29:42;;;;;;;29.88;18.95;;;11.50;99.90;;;;;;5199407;28;20531;-71
2023/05/15 02:32:35;;;;;;;4.75;3.63;;;11.50;99.90;;;;;;5219432;28;20036;-72
2023/05/15 02:35:25;;;;;;;3.20;2.25;;;11.40;99.90;;;;;;5205019;28;20036;-70
2023/05/15 02:37:59;;;;;;;6.00;4.75;;;11.40;99.90;;;;;;5188119;28;20256;-71
2023/05/15 02:40:33;;;;;;;6.80;5.03;;;11.30;99.90;;;;;;5204087;28;20040;-71
2023/05/15 02:43:06;;;;;;;4.18;3.55;;;11.30;99.90;;;;;;5204471;28;20095;-72
2023/05/15 02:45:42;;;;;;;4.28;2.88;;;11.30;99.90;;;;;;5208731;28;20025;-72
2023/05/15 02:48:15;;;;;;;17.08;11.82;;;11.30;99.90;;;;;;5186683;28;20044;-70
2023/05/15 02:50:47;;;;;;;24.87;15.77;;;11.40;99.90;;;;;;5222628;28;20039;-72
2023/05/15 02:53:21;;;;;;;2.13;1.67;;;11.40;99.90;;;;;;5222307;28;20028;-70
2023/05/15 02:55:53;;;;;;;4.07;3.20;;;11.20;99.90;;;;;;5199784;28;20372;-70
2023/05/15 02:58:28;;;;;;;2.28;2.08;;;11.30;99.90;;;;;;5220803;28;20041;-71
2023/05/15 03:01:03;;;;;;;6.63;4.03;;;11.30;99.90;;;;;;5200739;28;20051;-70
2023/05/15 03:03:34;;;;;;;4.68;3.85;;;11.30;99.90;;;;;;5202508;28;20074;-72
2023/05/15 03:06:09;;;;;;;2.45;2.25;;;11.40;99.90;;;;;;5176804;28;20088;-71
2023/05/15 03:08:40;;;;;;;7.65;3.60;;;11.40;99.90;;;;;;5204725;28;20049;-71
2023/05/15 03:11:14;;;;;;;9.50;5.55;;;11.40;99.90;;;;;;5207370;28;20067;-71
2023/05/15 03:13:45;;;;;;;10.93;5.78;;;11.30;99.90;;;;;;5222172;28;20543;-71
2023/05/15 03:16:22;;;;;;;31.42;14.15;;;11.30;99.90;;;;;;5222675;28;20037;-71
2023/05/15 03:18:59;;;;;;;37.80;17.27;;;11.30;99.90;;;;;;5225250;28;20048;-70
2023/05/15 03:21:33;;;;;;;8.52;3.92;;;11.40;99.90;;;;;;5204779;28;20341;-71
2023/05/15 03:24:09;;;;;;;4.72;2.60;;;11.40;99.90;;;;;;5202827;28;20341;-70
2023/05/15 03:26:43;;;;;;;12.82;9.73;;;11.40;99.90;;;;;;5188301;28;20039;-70
2023/05/15 03:29:15;;;;;;;4.28;2.95;;;11.40;99.90;;;;;;5212491;28;20045;-70
2023/05/15 03:31:49;;;;;;;432.67;285.13;;;11.50;99.90;;;;;;5192014;28;20074;-71
2023/05/15 03:34:20;;;;;;;25.77;18.00;;;11.50;99.90;;;;;;5189763;28;20043;-71
2023/05/15 03:36:54;;;;;;;7.30;5.72;;;11.50;99.90;;;;;;5211338;28;20033;-70
2023/05/15 03:39:27;;;;;;;2.50;2.20;;;11.60;99.90;;;;;;5226723;28;20032;-74
2023/05/15 03:41:59;;;;;;;12.65;7.40;;;11.60;99.90;;;;;;5227098;28;20450;-70
2023/05/15 03:44:32;;;;;;;7.78;6.13;;;11.70;99.90;;;;;;5209679;28;20041;-71
2023/05/15 03:47:06;;;;;;;5.30;4.80;;;11.80;99.90;;;;;;5220216;28;20047;-71
2023/05/15 03:49:37;;;;;;;5.18;3.90;;;11.70;99.90;;;;;;5204064;28;20044;-69
2023/05/15 03:52:11;;;;;;;4.32;2.63;;;11.80;99.90;;;;;;5224124;28;20039;-71
2023/05/15 03:54:43;;;;;;;1.50;1.40;;;11.80;99.90;;;;;;5221658;28;20047;-72
2023/05/15 03:57:14;;;;;;;2.88;1.90;;;11.80;99.90;;;;;;5203777;28;20535;-69
2023/05/15 03:59:50;;;;;;;7.47;4.88;;;11.80;99.90;;;;;;5204676;28;20047;-71
2023/05/15 04:02:21;;;;;;;22.42;15.85;;;11.90;99.90;;;;;;5200373;28;20047;-71
2023/05/15 04:04:57;;;;;;;2.95;2.28;;;11.90;99.90;;;;;;5186059;28;20049;-71
2023/05/15 04:07:28;;;;;;;1.65;1.45;;;12.00;99.90;;;;;;5204775;28;20032;-68
2023/05/15 04:10:02;;;;;;;1.52;1.33;;;12.10;99.90;;;;;;5189316;28;20033;-71
2023/05/15 04:12:35;;;;;;;1.35;1.23;;;12.10;99.90;;;;;;5204120;28;20041;-73
2023/05/15 04:15:27;;;;;;;1.30;1.20;;;11.90;99.90;;;;;;5204284;28;20040;-71
2023/05/15 04:18:03;;;;;;;0.75;0.75;;;11.80;99.90;;;;;;5203560;28;20041;-71
2023/05/15 04:20:35;;;;;;;0.60;0.60;;;11.70;99.90;;;;;;5204519;28;20047;-72
2023/05/15 04:23:06;;;;;;;0.85;0.85;;;11.60;99.90;;;;;;5191150;28;20044;-70
2023/05/15 04:25:38;;;;;;;1.30;1.20;;;11.60;99.90;;;;;;5211448;28;20060;-71
2023/05/15 04:28:09;;;;;;;0.73;0.73;;;11.70;99.90;;;;;;5200484;28;20483;-71
2023/05/15 04:30:40;;;;;;;2.22;1.85;;;11.90;99.90;;;;;;5177215;28;20072;-71
2023/05/15 04:33:12;;;;;;;280.58;195.48;;;12.00;99.90;;;;;;5221104;28;20036;-68
2023/05/15 04:35:48;;;;;;;25.95;19.83;;;12.30;99.90;;;;;;5223708;28;20043;-69
2023/05/15 04:38:20;;;;;;;100.85;72.32;;;12.50;99.90;;;;;;5203693;28;20056;-70
2023/05/15 04:40:54;;;;;;;31.55;21.90;;;12.80;99.90;;;;;;5220961;28;20047;-68
2023/05/15 04:43:28;;;;;;;1.85;1.75;;;13.10;68.30;;;;;;5205818;28;20045;-71
2023/05/15 04:46:00;;;;;;;5.90;5.25;;;13.10;1.00;;;;;;5217951;28;20067;-70
2023/05/15 04:48:33;;;;;;;14.57;11.68;;;13.40;1.00;;;;;;5199755;28;20493;-69
2023/05/15 04:51:06;;;;;;;76.50;53.08;;;13.30;20.70;;;;;;5204103;28;20517;-69
2023/05/15 04:53:37;;;;;;;61.92;43.17;;;12.90;1.00;;;;;;5200995;28;20041;-69
2023/05/15 04:56:11;;;;;;;10.20;5.72;;;12.90;99.90;;;;;;5195259;28;20037;-70
2023/05/15 04:58:43;;;;;;;12.20;7.22;;;13.10;1.00;;;;;;5219813;28;20040;-67
2023/05/15 05:01:20;;;;;;;481.23;319.92;;;13.20;21.20;;;;;;5213363;28;20040;-69
2023/05/15 05:03:52;;;;;;;5.35;4.28;;;13.70;1.00;;;;;;5208400;28;20036;-68
2023/05/15 05:06:23;;;;;;;11.55;7.82;;;13.60;1.00;;;;;;5211496;28;20336;-67
2023/05/15 05:08:57;;;;;;;73.25;45.42;;;13.90;1.00;;;;;;5212095;28;20041;-69
2023/05/15 05:11:30;;;;;;;346.90;225.20;;;13.90;1.00;;;;;;5204316;28;20073;-69
2023/05/15 05:14:02;;;;;;;353.35;204.30;;;14.00;1.00;;;;;;5218936;28;20037;-69
2023/05/15 05:16:34;;;;;;;458.58;289.67;;;14.10;1.00;;;;;;5190382;28;20062;-70
2023/05/15 05:19:07;;;;;;;833.58;457.02;;;14.20;1.00;;;;;;5205283;28;20142;-69
2023/05/15 05:21:44;;;;;;;43.97;20.58;;;14.30;1.00;;;;;;5177447;28;20051;-69
2023/05/15 05:24:23;;;;;;;8.50;4.32;;;14.20;1.00;;;;;;5186151;28;20036;-67
2023/05/15 05:26:57;;;;;;;4.30;3.10;;;13.90;1.00;;;;;;5195272;28;20033;-69
2023/05/15 05:29:29;;;;;;;5.03;3.42;;;13.60;1.00;;;;;;5203404;28;20071;-68
2023/05/15 05:32:05;;;;;;;19.58;9.88;;;13.20;1.00;;;;;;5218030;28;21396;-70
2023/05/15 05:34:36;;;;;;;3.83;2.10;;;12.70;1.00;;;;;;5197204;28;20266;-70
2023/05/15 05:37:08;;;;;;;159.32;71.32;;;12.60;1.00;;;;;;5217325;28;20021;-69
2023/05/15 05:39:39;;;;;;;77.32;37.58;;;12.70;1.00;;;;;;5217407;28;20044;-70
2023/05/15 05:42:10;;;;;;;122.80;55.33;;;13.00;1.00;;;;;;5204657;28;20041;-69
2023/05/15 05:44:46;;;;;;;24.50;11.63;;;13.10;1.00;;;;;;5221946;28;20317;-70
2023/05/15 05:47:18;;;;;;;161.65;124.38;;;13.20;1.00;;;;;;5202379;28;20029;-71
2023/05/15 05:49:49;;;;;;;56.65;43.10;;;13.60;1.00;;;;;;5203995;28;20043;-71
2023/05/15 05:52:24;;;;;;;21.13;16.83;;;13.80;1.00;;;;;;5197384;28;20044;-70
2023/05/15 05:55:01;;;;;;;23.15;17.73;;;13.90;1.00;;;;;;5202611;28;20677;-70
2023/05/15 05:57:35;;;;;;;38.88;25.83;;;13.80;1.00;;;;;;5220985;28;20031;-70
2023/05/15 06:00:10;;;;;;;20.98;15.85;;;13.70;1.00;;;;;;5204108;28;20043;-71
2023/05/15 06:02:43;;;;;;;1.60;1.50;;;14.10;1.00;;;;;;5209495;28;20041;-72
2023/05/15 06:05:14;;;;;;;2.83;2.53;;;14.30;1.00;;;;;;5190277;28;20060;-71
2023/05/15 06:07:51;;;;;;;2.97;2.72;;;14.70;1.00;;;;;;5199744;28;20040;-71
2023/05/15 06:10:22;;;;;;;1.23;1.10;;;14.80;1.00;;;;;;5210690;28;20103;-71
2023/05/15 06:12:54;;;;;;;1.55;1.45;;;14.60;1.00;;;;;;5219604;28;20043;-70
2023/05/15 06:15:25;;;;;;;1.65;1.55;;;14.50;1.00;;;;;;5232095;28;20022;-71
2023/05/15 06:17:57;;;;;;;1.27;1.23;;;14.40;1.00;;;;;;5242007;28;20042;-70
2023/05/15 06:20:30;;;;;;;2.03;1.92;;;14.20;1.00;;;;;;5221232;28;20037;-70
2023/05/15 06:23:02;;;;;;;0.80;0.80;;;14.10;1.00;;;;;;5177265;28;20235;-70
2023/05/15 06:25:33;;;;;;;0.60;0.60;;;14.10;1.00;;;;;;5199291;28;20037;-70
2023/05/15 06:28:05;;;;;;;0.60;0.60;;;14.20;1.00;;;;;;5199034;28;20033;-71
2023/05/15 06:30:46;;;;;;;0.47;0.47;;;14.10;1.00;;;;;;5188957;28;20605;-72
2023/05/15 06:33:17;;;;;;;0.52;0.52;;;14.20;1.00;;;;;;5221693;28;20032;-70
2023/05/15 06:35:51;;;;;;;1.10;1.10;;;14.40;1.00;;;;;;5216796;28;20028;-72
2023/05/15 06:38:22;;;;;;;0.88;0.88;;;14.40;1.00;;;;;;5220080;28;20051;-70
2023/05/15 06:40:54;;;;;;;0.70;0.70;;;14.70;1.00;;;;;;5219586;28;20037;-70
2023/05/15 06:43:26;;;;;;;0.80;0.80;;;14.60;1.00;;;;;;5202246;28;20246;-70
2023/05/15 06:45:57;;;;;;;0.70;0.70;;;14.70;1.00;;;;;;5222959;28;20035;-70
2023/05/15 06:48:32;;;;;;;0.70;0.70;;;15.00;1.00;;;;;;5228562;28;20213;-70
2023/05/15 06:51:06;;;;;;;0.85;0.85;;;14.90;1.00;;;;;;5175158;28;20538;-71
2023/05/15 06:53:37;;;;;;;0.68;0.68;;;14.80;99.90;;;;;;5204876;28;20048;-71
2023/05/15 06:56:09;;;;;;;0.60;0.60;;;15.00;1.00;;;;;;5204974;28;20032;-71
2023/05/15 06:58:43;;;;;;;0.80;0.80;;;15.40;1.00;;;;;;5206284;28;20039;-72
2023/05/15 07:01:16;;;;;;;0.70;0.70;;;15.00;99.90;;;;;;5191106;28;20029;-72
2023/05/15 07:03:50;;;;;;;0.73;0.73;;;14.90;1.00;;;;;;5200464;28;20029;-73
2023/05/15 07:06:25;;;;;;;0.82;0.82;;;15.00;99.90;;;;;;5191652;28;20064;-71
2023/05/15 07:08:58;;;;;;;0.75;0.75;;;14.90;1.00;;;;;;5219512;28;20033;-71
2023/05/15 07:11:36;;;;;;;0.52;0.52;;;14.90;99.90;;;;;;5222628;28;20021;-72
2023/05/15 07:14:07;;;;;;;0.60;0.60;;;14.90;99.90;;;;;;5217859;28;20032;-73
2023/05/15 07:16:38;;;;;;;0.65;0.65;;;14.90;1.00;;;;;;5217492;28;20055;-72
2023/05/15 07:19:11;;;;;;;0.63;0.63;;;15.30;99.90;;;;;;5207871;28;20043;-72
2023/05/15 07:21:45;;;;;;;0.63;0.60;;;15.00;99.90;;;;;;5220414;28;20039;-71
2023/05/15 07:24:21;;;;;;;0.68;0.68;;;14.80;14.10;;;;;;5216426;28;20028;-72
2023/05/15 07:26:55;;;;;;;0.50;0.50;;;14.80;99.90;;;;;;5202061;28;20072;-72
2023/05/15 07:29:27;;;;;;;0.70;0.70;;;14.80;99.90;;;;;;5218733;28;20060;-72
2023/05/15 07:32:00;;;;;;;0.60;0.60;;;15.40;99.90;;;;;;5212419;28;20036;-73
2023/05/15 07:34:31;;;;;;;0.68;0.68;;;15.40;1.00;;;;;;5226469;28;20370;-72
2023/05/15 07:37:03;;;;;;;0.98;0.98;;;15.10;1.00;;;;;;5239243;28;20044;-73
2023/05/15 07:39:35;;;;;;;0.73;0.73;;;15.00;99.90;;;;;;5224748;28;20229;-73
2023/05/15 07:42:09;;;;;;;0.60;0.60;;;14.90;1.00;;;;;;5206045;28;20029;-73
2023/05/15 07:44:41;;;;;;;0.60;0.60;;;14.50;99.90;;;;;;5189576;28;20048;-72
2023/05/15 07:47:12;;;;;;;1.10;0.75;;;14.50;99.90;;;;;;5214718;28;20338;-72
2023/05/15 07:49:46;;;;;;;0.68;0.68;;;14.60;98.60;;;;;;5217857;28;20028;-72
2023/05/15 07:52:17;;;;;;;0.80;0.80;;;14.60;99.90;;;;;;5210615;28;20047;-72
2023/05/15 07:54:51;;;;;;;0.70;0.70;;;14.30;99.90;;;;;;5217694;28;20045;-72
2023/05/15 07:57:24;;;;;;;0.80;0.80;;;14.50;99.90;;;;;;5201576;28;20041;-72
2023/05/15 07:59:55;;;;;;;2.50;0.80;;;14.40;99.90;;;;;;5206995;28;20601;-72
2023/05/15 08:02:29;;;;;;;0.73;0.60;;;14.60;99.90;;;;;;5223870;28;20036;-72
2023/05/15 08:05:01;;;;;;;0.82;0.82;;;14.90;23.10;;;;;;5201583;28;20660;-72
2023/05/15 08:07:34;;;;;;;0.68;0.68;;;15.20;1.00;;;;;;5187103;28;20029;-72
2023/05/15 08:10:09;;;;;;;0.70;0.70;;;15.40;1.00;;;;;;5219113;28;20210;-72
2023/05/15 08:12:45;;;;;;;0.90;0.90;;;15.60;1.00;;;;;;5200634;28;20041;-73
2023/05/15 08:15:16;;;;;;;0.50;0.50;;;15.40;1.00;;;;;;5195513;28;20037;-72
2023/05/15 08:17:48;;;;;;;0.70;0.70;;;15.20;1.00;;;;;;5207114;28;20048;-72
2023/05/15 08:20:19;;;;;;;1.65;0.80;;;14.50;1.00;;;;;;5188343;28;20234;-72
2023/05/15 08:22:53;;;;;;;0.80;0.80;;;14.90;1.00;;;;;;5217520;28;20269;-72
2023/05/15 08:25:25;;;;;;;0.90;0.90;;;15.30;1.00;;;;;;5220298;28;20047;-71
2023/05/15 08:27:56;;;;;;;0.80;0.80;;;15.70;1.00;;;;;;5199087;28;20044;-72
2023/05/15 08:30:30;;;;;;;1.00;1.00;;;15.80;99.90;;;;;;5197444;28;20036;-71
2023/05/15 08:33:02;;;;;;;0.80;0.80;;;16.20;99.90;;;;;;5172165;28;20423;-72
2023/05/15 08:35:36;;;;;;;0.77;0.77;;;16.20;30.10;;;;;;5203125;28;20032;-72
2023/05/15 08:38:08;;;;;;;1.00;1.00;;;16.70;99.90;;;;;;5191958;28;20044;-72
2023/05/15 08:40:44;;;;;;;0.82;0.82;;;17.00;1.00;;;;;;5185503;28;20048;-72
2023/05/15 08:43:20;;;;;;;0.80;0.80;;;16.40;99.90;;;;;;5223102;28;20031;-71
2023/05/15 08:45:55;;;;;;;0.75;0.75;;;16.00;1.00;;;;;;5205236;28;20356;-72
2023/05/15 08:48:31;;;;;;;0.82;0.82;;;16.50;1.00;;;;;;5216289;28;20033;-72
2023/05/15 08:51:09;;;;;;;0.70;0.70;;;16.80;1.00;;;;;;5197282;28;20060;-72
2023/05/15 08:53:42;;;;;;;1.05;1.02;;;16.70;99.90;;;;;;5197600;28;20048;-73
2023/05/15 08:56:13;;;;;;;0.80;0.80;;;16.70;99.90;;;;;;5202565;28;20036;-72
2023/05/15 08:58:45;;;;;;;0.90;0.90;;;16.70;1.00;;;;;;5221653;28;20029;-72
2023/05/15 09:01:23;;;;;;;0.88;0.88;;;17.20;99.90;;;;;;5213817;28;20164;-73
2023/05/15 09:03:54;;;;;;;0.88;0.88;;;18.10;1.00;;;;;;5230444;28;20021;-71
2023/05/15 09:06:27;;;;;;;0.60;0.60;;;18.40;99.90;;;;;;5189937;28;20049;-71
2023/05/15 09:09:01;;;;;;;0.70;0.70;;;18.20;99.90;;;;;;5185170;28;20218;-71
2023/05/15 09:11:35;;;;;;;0.93;0.93;;;18.20;1.00;;;;;;5202936;28;20037;-71
2023/05/15 09:14:09;;;;;;;0.68;0.68;;;18.20;1.00;;;;;;5173690;28;20030;-71
2023/05/15 09:16:41;;;;;;;0.70;0.70;;;18.30;1.00;;;;;;5203037;28;20046;-71
2023/05/15 09:19:16;;;;;;;0.80;0.80;;;18.50;1.00;;;;;;5217474;28;20036;-71
2023/05/15 09:21:47;;;;;;;0.90;0.90;;;18.60;1.00;;;;;;5175741;28;20086;-70
2023/05/15 09:24:23;;;;;;;0.68;0.68;;;19.10;99.90;;;;;;5189385;28;20101;-71
2023/05/15 09:27:04;;;;;;;0.88;0.88;;;18.70;99.90;;;;;;5216145;28;20025;-71
2023/05/15 09:29:37;;;;;;;0.90;0.90;;;18.80;99.90;;;;;;5186490;28;20036;-71
2023/05/15 09:32:12;;;;;;;0.60;0.60;;;18.10;99.90;;;;;;5181203;28;20452;-71
2023/05/15 09:34:44;;;;;;;0.80;0.80;;;17.50;99.90;;;;;;5200363;28;20043;-74
2023/05/15 09:37:31;;;;;;;0.65;0.65;;;16.80;1.00;;;;;;5186095;28;20043;-71
2023/05/15 09:40:10;;;;;;;0.80;0.80;;;16.90;1.00;;;;;;5194216;28;20506;-70
2023/05/15 09:42:41;;;;;;;0.73;0.70;;;16.60;99.90;;;;;;5193085;28;20041;-70
2023/05/15 09:45:17;;;;;;;0.82;0.82;;;16.50;1.00;;;;;;5204471;28;20029;-71
2023/05/15 09:47:50;;;;;;;0.82;0.82;;;16.40;99.90;;;;;;5188965;28;20036;-71
2023/05/15 09:50:37;;;;;;;0.90;0.90;;;16.40;99.90;;;;;;5208595;28;20051;-71
2023/05/15 09:53:49;;;;;;;0.80;0.80;;;16.70;99.90;;;;;;5199345;28;20025;-71
2023/05/15 09:56:24;;;;;;;0.77;0.77;;;17.50;99.90;;;;;;5189600;28;20042;-72
2023/05/15 09:58:58;;;;;;;;;;;18.30;1.00;;;;;;5179659;28;20037;-71
2023/05/15 10:01:29;;;;;;;0.80;0.80;;;18.40;1.00;;;;;;5198601;28;20402;-71
2023/05/15 10:04:05;;;;;;;0.60;0.60;;;18.50;99.90;;;;;;5210637;28;20043;-72
2023/05/15 10:06:41;;;;;;;0.80;0.80;;;18.40;1.00;;;;;;5167524;28;20045;-72
2023/05/15 10:09:14;;;;;;;0.70;0.70;;;18.80;1.00;;;;;;5213274;28;20037;-71
2023/05/15 10:11:53;;;;;;;0.88;0.88;;;19.50;1.00;;;;;;5216843;28;20189;-72
2023/05/15 10:14:27;;;;;;;0.80;0.80;;;20.60;1.00;;;;;;5196674;28;20305;-71
2023/05/15 10:17:03;;;;;;;0.70;0.70;;;21.10;1.00;;;;;;5195364;28;20036;-70
2023/05/15 10:19:35;;;;;;;0.90;0.90;;;20.60;1.00;;;;;;5199326;28;20041;-71
2023/05/15 10:22:09;;;;;;;0.75;0.75;;;20.80;1.00;;;;;;5199458;28;20048;-71
2023/05/15 10:24:51;;;;;;;0.80;0.80;;;20.10;1.00;;;;;;5179619;28;20036;-71
2023/05/15 10:27:22;;;;;;;0.60;0.60;;;19.70;1.00;;;;;;5196028;28;20021;-72
2023/05/15 10:29:56;;;;;;;0.70;0.70;;;19.00;1.00;;;;;;5181639;28;20144;-72
2023/05/15 10:32:29;;;;;;;0.88;0.88;;;19.00;99.90;;;;;;5210694;28;20491;-72
2023/05/15 10:35:01;;;;;;;0.80;0.80;;;19.50;99.90;;;;;;5184374;28;20628;-71
2023/05/15 10:37:35;;;;;;;0.80;0.80;;;19.50;99.90;;;;;;5193935;28;20047;-72
2023/05/15 10:40:09;;;;;;;0.80;0.80;;;18.50;99.90;;;;;;5196998;28;20080;-72
2023/05/15 10:42:44;;;;;;;0.80;0.80;;;18.10;99.90;;;;;;5218573;28;20037;-71
2023/05/15 10:45:17;;;;;;;0.90;0.90;;;18.50;1.00;;;;;;5180118;28;20020;-71
2023/05/15 10:47:49;;;;;;;0.57;0.57;;;19.00;99.90;;;;;;5201322;28;20329;-72
2023/05/15 10:50:21;;;;;;;0.75;0.75;;;18.70;99.90;;;;;;5207274;28;20040;-71
2023/05/15 10:52:54;;;;;;;0.70;0.70;;;19.20;99.90;;;;;;5183036;28;20044;-71
2023/05/15 10:55:26;;;;;;;0.80;0.80;;;19.40;1.00;;;;;;5188815;28;20047;-71
2023/05/15 10:58:00;;;;;;;0.85;0.85;;;19.50;99.90;;;;;;5196802;28;20029;-72
2023/05/15 11:00:34;;;;;;;0.80;0.80;;;19.60;99.90;;;;;;5182596;28;20040;-71
2023/05/15 11:03:08;;;;;;;0.85;0.85;;;19.20;99.90;;;;;;5172217;28;20050;-72
2023/05/15 11:06:10;;;;;;;0.80;0.80;;;19.80;99.90;;;;;;5199388;28;20056;-71
2023/05/15 11:08:44;;;;;;;1.38;0.82;;;20.60;99.90;;;;;;5198583;28;20051;-71
2023/05/15 11:11:50;;;;;;;0.90;0.90;;;21.40;1.00;;;;;;5178350;28;20040;-71
2023/05/15 11:14:27;;;;;;;;;;;21.60;1.00;;;;;;5215077;28;20020;-71
2023/05/15 11:17:03;;;;;;;1.00;1.00;;;21.10;1.00;;;;;;5177949;28;19916;-72
2023/05/15 11:19:52;;;;;;;0.60;0.60;;;21.80;1.00;;;;;;5206347;28;20034;-71
2023/05/15 11:22:38;;;;;;;0.70;0.70;;;21.40;1.00;;;;;;5191747;28;20241;-71
2023/05/15 11:25:15;;;;;;;0.85;0.85;;;21.10;1.00;;;;;;5206740;28;20036;-71
2023/05/15 11:27:46;;;;;;;0.80;0.80;;;21.60;1.00;;;;;;5206823;28;20647;-71
2023/05/15 11:30:21;;;;;;;0.90;0.90;;;23.00;1.00;;;;;;5198014;28;20056;-71
2023/05/15 11:32:58;;;;;;;0.73;0.73;;;23.00;1.00;;;;;;5204311;28;20116;-71
2023/05/15 11:35:34;;;;;;;1.20;1.00;;;22.40;1.00;;;;;;5201782;28;20025;-72
2023/05/15 11:38:08;;;;;;;0.80;0.80;;;21.50;1.00;;;;;;5206465;28;20044;-71
2023/05/15 11:40:48;;;;;;;0.80;0.80;;;21.90;99.90;;;;;;5212856;28;20047;-72
2023/05/15 11:43:35;;;;;;;0.60;0.60;;;22.50;99.90;;;;;;5198647;28;20222;-70
2023/05/15 11:46:13;;;;;;;0.70;0.70;;;22.20;99.90;;;;;;5201957;28;20177;-71
2023/05/15 11:48:46;;;;;;;0.70;0.70;;;23.10;99.90;;;;;;5207227;28;20119;-71
2023/05/15 11:51:26;;;;;;;0.77;0.77;;;22.80;99.90;;;;;;5208271;28;20027;-70
2023/05/15 11:53:59;;;;;;;0.80;0.80;;;21.30;99.90;;;;;;5205354;28;20028;-71
2023/05/15 11:56:32;;;;;;;0.90;0.90;;;21.20;99.90;;;;;;5175643;28;20037;-71
2023/05/15 11:59:04;;;;;;;0.98;0.98;;;21.40;99.90;;;;;;5220623;28;20028;-72
2023/05/15 12:01:40;;;;;;;0.90;0.90;;;21.50;99.90;;;;;;5201133;28;20059;-71
2023/05/15 12:04:13;;;;;;;0.88;0.88;;;22.10;1.00;;;;;;5173963;28;20033;-69
2023/05/15 12:06:49;;;;;;;0.80;0.80;;;22.80;99.90;;;;;;5187622;28;20033;-71
2023/05/15 12:09:26;;;;;;;0.80;0.80;;;24.50;99.90;;;;;;5197062;28;20055;-71
2023/05/15 12:12:04;;;;;;;0.95;0.77;;;24.90;99.90;;;;;;5194111;28;20576;-69
2023/05/15 12:14:36;;;;;;;0.90;0.90;;;25.00;99.90;;;;;;5220966;28;20031;-70
2023/05/15 12:17:08;;;;;;;0.70;0.70;;;24.90;99.90;;;;;;5200493;28;20057;-72
2023/05/15 12:19:43;;;;;;;0.90;0.90;;;25.10;99.90;;;;;;5222217;28;20451;-70
2023/05/15 12:22:17;;;;;;;0.55;0.55;;;25.30;99.90;;;;;;5184996;28;20044;-71
2023/05/15 12:24:51;;;;;;;0.70;0.70;;;24.80;99.90;;;;;;5210592;28;20356;-71
2023/05/15 12:27:22;;;;;;;0.90;0.90;;;23.80;99.90;;;;;;5191115;28;20025;-71
2023/05/15 12:29:54;;;;;;;1.10;0.93;;;24.20;99.90;;;;;;5197307;28;20047;-71
2023/05/15 12:32:26;;;;;;;0.85;0.85;;;22.90;18.30;;;;;;5214833;28;20044;-69
2023/05/15 12:35:01;;;;;;;0.80;0.80;;;22.30;13.30;;;;;;5223452;28;20318;-70
2023/05/15 12:37:34;;;;;;;;;;;23.40;99.90;;;;;;5172290;28;20518;-70
2023/05/15 12:40:10;;;;;;;0.60;0.60;;;24.10;1.00;;;;;;5184401;28;19920;-70
2023/05/15 12:42:43;;;;;;;0.65;0.65;;;25.00;1.00;;;;;;5206608;28;20328;-70
2023/05/15 12:45:17;;;;;;;1.00;1.00;;;25.10;1.00;;;;;;5200543;28;20033;-70
2023/05/15 12:47:50;;;;;;;0.77;0.77;;;23.60;1.00;;;;;;5167623;28;20253;-71
2023/05/15 12:50:25;;;;;;;0.70;0.70;;;22.20;1.00;;;;;;5201495;28;20337;-69
2023/05/15 12:52:58;;;;;;;0.90;0.90;;;22.50;1.00;;;;;;5209706;28;20049;-70
2023/05/15 12:55:41;;;;;;;0.80;0.75;;;21.90;1.00;;;;;;5208944;28;20032;-70
2023/05/15 12:58:17;;;;;;;0.80;0.80;;;21.80;1.00;;;;;;5202588;28;20036;-71
2023/05/15 13:00:53;;;;;;;0.55;0.55;;;23.50;1.00;;;;;;5183682;28;20367;-72
2023/05/15 13:03:30;;;;;;;0.70;0.70;;;24.10;1.00;;;;;;5170923;28;20070;-71
2023/05/15 13:06:02;;;;;;;0.82;0.82;;;24.00;1.00;;;;;;5198661;28;20047;-70
2023/05/15 13:08:39;;;;;;;0.70;0.70;;;23.70;1.00;;;;;;5171896;28;20068;-70
2023/05/15 13:11:12;;;;;;;0.85;0.85;;;22.80;1.00;;;;;;5198331;28;20045;-69
2023/05/15 13:13:48;;;;;;;0.80;0.80;;;22.30;1.00;;;;;;5210810;28;20080;-71
2023/05/15 13:16:28;;;;;;;0.60;0.60;;;22.80;1.00;;;;;;5185054;28;20374;-71
2023/05/15 13:18:59;;;;;;;0.60;0.60;;;23.50;1.00;;;;;;5203700;28;20051;-70
2023/05/15 13:21:30;;;;;;;0.75;0.75;;;22.70;1.00;;;;;;5186681;28;20036;-71
2023/05/15 13:24:01;;;;;;;0.70;0.70;;;22.40;1.00;;;;;;5175605;28;20052;-71
2023/05/15 13:26:33;;;;;;;0.60;0.60;;;22.70;1.00;;;;;;5202545;28;20067;-72